sensor_id;sensor_type;location;lat;lon;timestamp;P1;durP1;ratioP1;P2;durP2;ratioP2
64686;SDS011;51113;53.646;-113.674;2023-06-26T00:00:11;14.27;;;9.13;;
64686;SDS011;51113;53.646;-113.674;2023-06-26T00:02:40;23.33;;;12.85;;
64686;SDS011;51113;53.646;-113.674;2023-06-26T00:05:09;21.80;;;11.00;;
64686;SDS011;51113;53.646;-113.674;2023-06-26T00:07:38;25.50;;;15.88;;
64686;SDS011;51113;53.646;-113.674;2023-06-26T00:10:07;14.57;;;7.97;;
64686;SDS011;51113;53.646;-113.674;2023-06-26T00:12:36;12.82;;;7.97;;
64686;SDS011;51113;53.646;-113.674;2023-06-26T00:15:04;12.35;;;7.95;;
64686;SDS011;51113;53.646;-113.674;2023-06-26T00:17:36;16.88;;;8.77;;
64686;SDS011;51113;53.646;-113.674;2023-06-26T00:20:06;16.33;;;7.78;;
64686;SDS011;51113;53.646;-113.674;2023-06-26T00:22:36;10.93;;;8.20;;
64686;SDS011;51113;53.646;-113.674;2023-06-26T00:27:37;16.50;;;7.97;;
64686;SDS011;51113;53.646;-113.674;2023-06-26T00:30:05;14.00;;;7.85;;
64686;SDS011;51113;53.646;-113.674;2023-06-26T00:32:34;12.75;;;8.43;;
64686;SDS011;51113;53.646;-113.674;2023-06-26T00:35:04;11.50;;;8.50;;
64686;SDS011;51113;53.646;-113.674;2023-06-26T00:37:33;14.20;;;8.20;;
64686;SDS011;51113;53.646;-113.674;2023-06-26T00:40:02;11.95;;;7.35;;
64686;SDS011;51113;53.646;-113.674;2023-06-26T00:42:33;14.05;;;8.18;;
64686;SDS011;51113;53.646;-113.674;2023-06-26T00:45:01;15.95;;;7.93;;
64686;SDS011;51113;53.646;-113.674;2023-06-26T00:47:30;10.45;;;7.22;;
64686;SDS011;51113;53.646;-113.674;2023-06-26T00:49:59;15.48;;;7.57;;
64686;SDS011;51113;53.646;-113.674;2023-06-26T00:52:28;12.00;;;8.48;;
64686;SDS011;51113;53.646;-113.674;2023-06-26T00:54:56;12.98;;;7.53;;
64686;SDS011;51113;53.646;-113.674;2023-06-26T00:57:26;11.95;;;7.35;;
64686;SDS011;51113;53.646;-113.674;2023-06-26T00:59:55;13.98;;;7.90;;
64686;SDS011;51113;53.646;-113.674;2023-06-26T01:02:24;13.30;;;7.93;;
64686;SDS011;51113;53.646;-113.674;2023-06-26T01:04:55;12.93;;;7.90;;
64686;SDS011;51113;53.646;-113.674;2023-06-26T01:07:23;10.10;;;7.22;;
64686;SDS011;51113;53.646;-113.674;2023-06-26T01:09:52;12.98;;;7.95;;
64686;SDS011;51113;53.646;-113.674;2023-06-26T01:12:21;15.52;;;8.13;;
64686;SDS011;51113;53.646;-113.674;2023-06-26T01:14:50;12.85;;;7.30;;
64686;SDS011;51113;53.646;-113.674;2023-06-26T01:17:19;14.38;;;7.75;;
64686;SDS011;51113;53.646;-113.674;2023-06-26T01:19:49;10.05;;;6.57;;
64686;SDS011;51113;53.646;-113.674;2023-06-26T01:25:13;14.32;;;6.90;;
64686;SDS011;51113;53.646;-113.674;2023-06-26T01:27:49;11.43;;;6.93;;
64686;SDS011;51113;53.646;-113.674;2023-06-26T01:30:20;12.80;;;7.05;;
64686;SDS011;51113;53.646;-113.674;2023-06-26T01:32:50;12.55;;;7.03;;
64686;SDS011;51113;53.646;-113.674;2023-06-26T01:35:19;11.23;;;6.97;;
64686;SDS011;51113;53.646;-113.674;2023-06-26T01:37:48;12.10;;;7.05;;
64686;SDS011;51113;53.646;-113.674;2023-06-26T01:40:16;12.15;;;7.38;;
64686;SDS011;51113;53.646;-113.674;2023-06-26T01:42:45;12.15;;;7.32;;
64686;SDS011;51113;53.646;-113.674;2023-06-26T01:45:14;12.00;;;7.07;;
64686;SDS011;51113;53.646;-113.674;2023-06-26T01:47:55;9.75;;;6.78;;
64686;SDS011;51113;53.646;-113.674;2023-06-26T01:50:28;12.95;;;7.47;;
64686;SDS011;51113;53.646;-113.674;2023-06-26T01:55:55;10.43;;;7.88;;
64686;SDS011;51113;53.646;-113.674;2023-06-26T01:58:43;11.05;;;7.00;;
64686;SDS011;51113;53.646;-113.674;2023-06-26T02:01:14;16.58;;;7.43;;
64686;SDS011;51113;53.646;-113.674;2023-06-26T02:03:44;11.52;;;6.85;;
64686;SDS011;51113;53.646;-113.674;2023-06-26T02:06:13;11.15;;;7.43;;
64686;SDS011;51113;53.646;-113.674;2023-06-26T02:08:42;14.27;;;7.50;;
64686;SDS011;51113;53.646;-113.674;2023-06-26T02:11:10;11.57;;;7.57;;
64686;SDS011;51113;53.646;-113.674;2023-06-26T02:13:39;12.75;;;7.05;;
64686;SDS011;51113;53.646;-113.674;2023-06-26T02:16:07;10.77;;;7.25;;
64686;SDS011;51113;53.646;-113.674;2023-06-26T02:18:36;12.95;;;7.30;;
64686;SDS011;51113;53.646;-113.674;2023-06-26T02:21:05;11.80;;;6.93;;
64686;SDS011;51113;53.646;-113.674;2023-06-26T02:23:35;10.90;;;7.18;;
64686;SDS011;51113;53.646;-113.674;2023-06-26T02:26:03;11.18;;;7.30;;
64686;SDS011;51113;53.646;-113.674;2023-06-26T02:28:32;10.52;;;7.32;;
64686;SDS011;51113;53.646;-113.674;2023-06-26T02:31:02;13.52;;;7.55;;
64686;SDS011;51113;53.646;-113.674;2023-06-26T02:33:30;11.73;;;7.38;;
64686;SDS011;51113;53.646;-113.674;2023-06-26T02:36:00;12.48;;;6.85;;
64686;SDS011;51113;53.646;-113.674;2023-06-26T02:38:29;15.35;;;7.28;;
64686;SDS011;51113;53.646;-113.674;2023-06-26T02:40:58;14.00;;;7.43;;
64686;SDS011;51113;53.646;-113.674;2023-06-26T02:43:26;11.35;;;7.32;;
64686;SDS011;51113;53.646;-113.674;2023-06-26T02:45:55;12.35;;;7.15;;
64686;SDS011;51113;53.646;-113.674;2023-06-26T02:48:23;14.32;;;7.43;;
64686;SDS011;51113;53.646;-113.674;2023-06-26T02:50:51;11.63;;;6.65;;
64686;SDS011;51113;53.646;-113.674;2023-06-26T02:53:20;12.18;;;7.72;;
64686;SDS011;51113;53.646;-113.674;2023-06-26T02:55:49;11.20;;;7.57;;
64686;SDS011;51113;53.646;-113.674;2023-06-26T02:58:18;11.40;;;7.50;;
64686;SDS011;51113;53.646;-113.674;2023-06-26T03:00:47;9.23;;;6.72;;
64686;SDS011;51113;53.646;-113.674;2023-06-26T03:03:16;11.15;;;6.93;;
64686;SDS011;51113;53.646;-113.674;2023-06-26T03:05:45;8.65;;;6.65;;
64686;SDS011;51113;53.646;-113.674;2023-06-26T03:08:13;10.00;;;6.55;;
64686;SDS011;51113;53.646;-113.674;2023-06-26T03:10:42;12.80;;;6.43;;
64686;SDS011;51113;53.646;-113.674;2023-06-26T03:13:10;14.55;;;6.38;;
64686;SDS011;51113;53.646;-113.674;2023-06-26T03:15:39;11.90;;;6.80;;
64686;SDS011;51113;53.646;-113.674;2023-06-26T03:18:08;10.13;;;6.88;;
64686;SDS011;51113;53.646;-113.674;2023-06-26T03:20:37;8.50;;;6.25;;
64686;SDS011;51113;53.646;-113.674;2023-06-26T03:23:06;9.20;;;5.85;;
64686;SDS011;51113;53.646;-113.674;2023-06-26T03:25:35;10.45;;;6.20;;
64686;SDS011;51113;53.646;-113.674;2023-06-26T03:28:04;8.80;;;6.30;;
64686;SDS011;51113;53.646;-113.674;2023-06-26T03:30:32;9.55;;;5.75;;
64686;SDS011;51113;53.646;-113.674;2023-06-26T03:33:01;11.95;;;6.28;;
64686;SDS011;51113;53.646;-113.674;2023-06-26T03:35:30;8.95;;;5.63;;
64686;SDS011;51113;53.646;-113.674;2023-06-26T03:37:59;7.97;;;5.78;;
64686;SDS011;51113;53.646;-113.674;2023-06-26T03:40:29;9.60;;;6.03;;
64686;SDS011;51113;53.646;-113.674;2023-06-26T03:42:58;10.35;;;6.13;;
64686;SDS011;51113;53.646;-113.674;2023-06-26T03:45:26;14.40;;;5.75;;
64686;SDS011;51113;53.646;-113.674;2023-06-26T03:47:55;8.55;;;5.70;;
64686;SDS011;51113;53.646;-113.674;2023-06-26T03:50:24;12.88;;;5.70;;
64686;SDS011;51113;53.646;-113.674;2023-06-26T03:52:52;7.70;;;5.35;;
64686;SDS011;51113;53.646;-113.674;2023-06-26T03:55:22;12.93;;;6.13;;
64686;SDS011;51113;53.646;-113.674;2023-06-26T03:57:51;11.07;;;6.40;;
64686;SDS011;51113;53.646;-113.674;2023-06-26T04:00:20;8.75;;;5.57;;
64686;SDS011;51113;53.646;-113.674;2023-06-26T04:02:49;8.73;;;5.45;;
64686;SDS011;51113;53.646;-113.674;2023-06-26T04:05:19;10.10;;;5.55;;
64686;SDS011;51113;53.646;-113.674;2023-06-26T04:07:50;9.50;;;6.07;;
64686;SDS011;51113;53.646;-113.674;2023-06-26T04:10:20;12.82;;;6.28;;
64686;SDS011;51113;53.646;-113.674;2023-06-26T04:12:49;11.00;;;5.97;;
64686;SDS011;51113;53.646;-113.674;2023-06-26T04:15:17;10.52;;;5.78;;
64686;SDS011;51113;53.646;-113.674;2023-06-26T04:17:46;10.90;;;5.47;;
64686;SDS011;51113;53.646;-113.674;2023-06-26T04:20:15;7.93;;;5.97;;
64686;SDS011;51113;53.646;-113.674;2023-06-26T04:22:44;10.52;;;6.35;;
64686;SDS011;51113;53.646;-113.674;2023-06-26T04:25:12;8.43;;;5.88;;
64686;SDS011;51113;53.646;-113.674;2023-06-26T04:27:41;13.55;;;6.15;;
64686;SDS011;51113;53.646;-113.674;2023-06-26T04:30:10;9.40;;;5.82;;
64686;SDS011;51113;53.646;-113.674;2023-06-26T04:32:40;8.60;;;5.72;;
64686;SDS011;51113;53.646;-113.674;2023-06-26T04:35:09;9.50;;;6.00;;
64686;SDS011;51113;53.646;-113.674;2023-06-26T04:37:37;12.77;;;6.95;;
64686;SDS011;51113;53.646;-113.674;2023-06-26T04:40:07;18.38;;;6.95;;
64686;SDS011;51113;53.646;-113.674;2023-06-26T04:42:37;11.43;;;6.47;;
64686;SDS011;51113;53.646;-113.674;2023-06-26T04:45:06;10.38;;;6.28;;
64686;SDS011;51113;53.646;-113.674;2023-06-26T04:47:35;12.88;;;6.65;;
64686;SDS011;51113;53.646;-113.674;2023-06-26T04:50:04;8.95;;;6.30;;
64686;SDS011;51113;53.646;-113.674;2023-06-26T04:52:33;12.38;;;7.32;;
64686;SDS011;51113;53.646;-113.674;2023-06-26T04:55:02;11.35;;;6.93;;
64686;SDS011;51113;53.646;-113.674;2023-06-26T04:57:31;11.18;;;7.35;;
64686;SDS011;51113;53.646;-113.674;2023-06-26T05:00:00;10.23;;;6.35;;
64686;SDS011;51113;53.646;-113.674;2023-06-26T05:02:28;16.13;;;6.65;;
64686;SDS011;51113;53.646;-113.674;2023-06-26T05:04:57;10.18;;;6.85;;
64686;SDS011;51113;53.646;-113.674;2023-06-26T05:07:25;12.18;;;6.25;;
64686;SDS011;51113;53.646;-113.674;2023-06-26T05:09:54;13.20;;;6.45;;
64686;SDS011;51113;53.646;-113.674;2023-06-26T05:12:23;9.35;;;6.78;;
64686;SDS011;51113;53.646;-113.674;2023-06-26T05:14:52;12.85;;;6.80;;
64686;SDS011;51113;53.646;-113.674;2023-06-26T05:17:20;11.68;;;6.00;;
64686;SDS011;51113;53.646;-113.674;2023-06-26T05:19:49;11.50;;;6.30;;
64686;SDS011;51113;53.646;-113.674;2023-06-26T05:22:18;9.68;;;6.65;;
64686;SDS011;51113;53.646;-113.674;2023-06-26T05:24:48;10.07;;;6.45;;
64686;SDS011;51113;53.646;-113.674;2023-06-26T05:27:22;13.25;;;6.57;;
64686;SDS011;51113;53.646;-113.674;2023-06-26T05:29:51;13.90;;;7.03;;
64686;SDS011;51113;53.646;-113.674;2023-06-26T05:32:20;16.88;;;6.50;;
64686;SDS011;51113;53.646;-113.674;2023-06-26T05:34:49;11.95;;;6.00;;
64686;SDS011;51113;53.646;-113.674;2023-06-26T05:37:25;11.25;;;6.88;;
64686;SDS011;51113;53.646;-113.674;2023-06-26T05:39:56;8.05;;;6.00;;
64686;SDS011;51113;53.646;-113.674;2023-06-26T05:42:26;11.65;;;6.45;;
64686;SDS011;51113;53.646;-113.674;2023-06-26T05:44:56;13.82;;;6.05;;
64686;SDS011;51113;53.646;-113.674;2023-06-26T05:47:24;10.55;;;6.55;;
64686;SDS011;51113;53.646;-113.674;2023-06-26T05:49:53;10.60;;;6.05;;
64686;SDS011;51113;53.646;-113.674;2023-06-26T05:52:22;9.27;;;6.93;;
64686;SDS011;51113;53.646;-113.674;2023-06-26T05:54:51;9.45;;;5.95;;
64686;SDS011;51113;53.646;-113.674;2023-06-26T05:57:20;9.60;;;7.00;;
64686;SDS011;51113;53.646;-113.674;2023-06-26T05:59:49;9.82;;;6.82;;
64686;SDS011;51113;53.646;-113.674;2023-06-26T06:02:18;11.25;;;7.35;;
64686;SDS011;51113;53.646;-113.674;2023-06-26T06:04:47;11.13;;;6.55;;
64686;SDS011;51113;53.646;-113.674;2023-06-26T06:07:16;16.70;;;7.40;;
64686;SDS011;51113;53.646;-113.674;2023-06-26T06:09:44;13.30;;;6.70;;
64686;SDS011;51113;53.646;-113.674;2023-06-26T06:12:13;9.25;;;6.07;;
64686;SDS011;51113;53.646;-113.674;2023-06-26T06:14:41;13.45;;;7.07;;
64686;SDS011;51113;53.646;-113.674;2023-06-26T06:17:10;10.55;;;6.93;;
64686;SDS011;51113;53.646;-113.674;2023-06-26T06:19:38;17.67;;;7.28;;
64686;SDS011;51113;53.646;-113.674;2023-06-26T06:22:07;11.45;;;7.40;;
64686;SDS011;51113;53.646;-113.674;2023-06-26T06:24:36;9.73;;;6.78;;
64686;SDS011;51113;53.646;-113.674;2023-06-26T06:27:05;16.65;;;7.85;;
64686;SDS011;51113;53.646;-113.674;2023-06-26T06:29:33;12.13;;;7.43;;
64686;SDS011;51113;53.646;-113.674;2023-06-26T06:32:02;12.20;;;7.05;;
64686;SDS011;51113;53.646;-113.674;2023-06-26T06:34:31;13.32;;;8.02;;
64686;SDS011;51113;53.646;-113.674;2023-06-26T06:36:59;12.57;;;7.25;;
64686;SDS011;51113;53.646;-113.674;2023-06-26T06:39:28;10.60;;;7.68;;
64686;SDS011;51113;53.646;-113.674;2023-06-26T06:41:57;14.32;;;8.05;;
64686;SDS011;51113;53.646;-113.674;2023-06-26T06:44:25;11.95;;;7.47;;
64686;SDS011;51113;53.646;-113.674;2023-06-26T06:46:54;13.10;;;7.30;;
64686;SDS011;51113;53.646;-113.674;2023-06-26T06:49:23;14.77;;;7.15;;
64686;SDS011;51113;53.646;-113.674;2023-06-26T06:51:51;12.98;;;8.43;;
64686;SDS011;51113;53.646;-113.674;2023-06-26T06:54:20;13.25;;;8.35;;
64686;SDS011;51113;53.646;-113.674;2023-06-26T06:56:49;12.73;;;8.27;;
64686;SDS011;51113;53.646;-113.674;2023-06-26T06:59:18;12.90;;;9.13;;
64686;SDS011;51113;53.646;-113.674;2023-06-26T07:01:46;21.58;;;9.40;;
64686;SDS011;51113;53.646;-113.674;2023-06-26T07:04:15;15.60;;;9.77;;
64686;SDS011;51113;53.646;-113.674;2023-06-26T07:06:44;19.67;;;9.55;;
64686;SDS011;51113;53.646;-113.674;2023-06-26T07:09:12;14.30;;;9.88;;
64686;SDS011;51113;53.646;-113.674;2023-06-26T07:11:42;16.40;;;9.02;;
64686;SDS011;51113;53.646;-113.674;2023-06-26T07:14:11;17.70;;;8.88;;
64686;SDS011;51113;53.646;-113.674;2023-06-26T07:16:39;17.10;;;9.85;;
64686;SDS011;51113;53.646;-113.674;2023-06-26T07:19:08;22.27;;;8.68;;
64686;SDS011;51113;53.646;-113.674;2023-06-26T07:21:37;14.60;;;9.25;;
64686;SDS011;51113;53.646;-113.674;2023-06-26T07:24:05;20.80;;;9.95;;
64686;SDS011;51113;53.646;-113.674;2023-06-26T07:26:34;15.82;;;9.80;;
64686;SDS011;51113;53.646;-113.674;2023-06-26T07:29:11;18.63;;;9.38;;
64686;SDS011;51113;53.646;-113.674;2023-06-26T07:31:40;15.45;;;9.18;;
64686;SDS011;51113;53.646;-113.674;2023-06-26T07:34:09;14.73;;;9.95;;
64686;SDS011;51113;53.646;-113.674;2023-06-26T07:36:37;17.15;;;9.82;;
64686;SDS011;51113;53.646;-113.674;2023-06-26T07:39:06;17.17;;;9.68;;
64686;SDS011;51113;53.646;-113.674;2023-06-26T07:41:39;14.00;;;9.57;;
64686;SDS011;51113;53.646;-113.674;2023-06-26T07:44:08;17.27;;;9.05;;
64686;SDS011;51113;53.646;-113.674;2023-06-26T07:46:36;16.00;;;9.50;;
64686;SDS011;51113;53.646;-113.674;2023-06-26T07:49:05;16.38;;;9.10;;
64686;SDS011;51113;53.646;-113.674;2023-06-26T07:51:34;21.70;;;9.50;;
64686;SDS011;51113;53.646;-113.674;2023-06-26T07:54:02;15.38;;;8.85;;
64686;SDS011;51113;53.646;-113.674;2023-06-26T07:56:31;14.32;;;9.45;;
64686;SDS011;51113;53.646;-113.674;2023-06-26T07:59:03;20.65;;;9.48;;
64686;SDS011;51113;53.646;-113.674;2023-06-26T08:01:32;16.13;;;9.20;;
64686;SDS011;51113;53.646;-113.674;2023-06-26T08:04:00;13.95;;;8.43;;
64686;SDS011;51113;53.646;-113.674;2023-06-26T08:06:29;16.15;;;8.77;;
64686;SDS011;51113;53.646;-113.674;2023-06-26T08:08:58;18.20;;;9.43;;
64686;SDS011;51113;53.646;-113.674;2023-06-26T08:11:26;17.38;;;9.80;;
64686;SDS011;51113;53.646;-113.674;2023-06-26T08:13:55;18.67;;;9.52;;
64686;SDS011;51113;53.646;-113.674;2023-06-26T08:16:24;18.48;;;9.88;;
64686;SDS011;51113;53.646;-113.674;2023-06-26T08:18:52;19.80;;;9.93;;
64686;SDS011;51113;53.646;-113.674;2023-06-26T08:21:21;22.17;;;10.27;;
64686;SDS011;51113;53.646;-113.674;2023-06-26T08:23:50;21.45;;;10.07;;
64686;SDS011;51113;53.646;-113.674;2023-06-26T08:26:18;19.92;;;9.55;;
64686;SDS011;51113;53.646;-113.674;2023-06-26T08:28:47;15.73;;;9.45;;
64686;SDS011;51113;53.646;-113.674;2023-06-26T08:31:16;22.45;;;9.63;;
64686;SDS011;51113;53.646;-113.674;2023-06-26T08:33:45;17.77;;;9.93;;
64686;SDS011;51113;53.646;-113.674;2023-06-26T08:36:14;21.38;;;11.02;;
64686;SDS011;51113;53.646;-113.674;2023-06-26T08:38:43;16.17;;;9.48;;
64686;SDS011;51113;53.646;-113.674;2023-06-26T08:41:11;14.88;;;9.60;;
64686;SDS011;51113;53.646;-113.674;2023-06-26T08:43:40;22.88;;;10.05;;
64686;SDS011;51113;53.646;-113.674;2023-06-26T08:46:09;18.17;;;9.02;;
64686;SDS011;51113;53.646;-113.674;2023-06-26T08:48:41;17.60;;;10.25;;
64686;SDS011;51113;53.646;-113.674;2023-06-26T08:51:17;21.30;;;11.13;;
64686;SDS011;51113;53.646;-113.674;2023-06-26T08:56:16;21.90;;;11.50;;
64686;SDS011;51113;53.646;-113.674;2023-06-26T08:58:49;22.92;;;11.35;;
64686;SDS011;51113;53.646;-113.674;2023-06-26T09:01:19;23.40;;;11.02;;
64686;SDS011;51113;53.646;-113.674;2023-06-26T09:03:49;26.58;;;12.18;;
64686;SDS011;51113;53.646;-113.674;2023-06-26T09:06:18;21.25;;;11.50;;
64686;SDS011;51113;53.646;-113.674;2023-06-26T09:08:47;22.98;;;12.15;;
64686;SDS011;51113;53.646;-113.674;2023-06-26T09:11:16;20.40;;;10.63;;
64686;SDS011;51113;53.646;-113.674;2023-06-26T09:13:44;20.90;;;10.95;;
64686;SDS011;51113;53.646;-113.674;2023-06-26T09:16:15;18.35;;;10.88;;
64686;SDS011;51113;53.646;-113.674;2023-06-26T09:18:45;20.20;;;10.23;;
64686;SDS011;51113;53.646;-113.674;2023-06-26T09:21:14;17.38;;;9.68;;
64686;SDS011;51113;53.646;-113.674;2023-06-26T09:23:43;16.20;;;9.50;;
64686;SDS011;51113;53.646;-113.674;2023-06-26T09:26:12;17.30;;;9.93;;
64686;SDS011;51113;53.646;-113.674;2023-06-26T09:28:42;14.52;;;9.30;;
64686;SDS011;51113;53.646;-113.674;2023-06-26T09:31:12;18.13;;;9.82;;
64686;SDS011;51113;53.646;-113.674;2023-06-26T09:33:59;14.10;;;9.85;;
64686;SDS011;51113;53.646;-113.674;2023-06-26T09:36:29;16.02;;;9.93;;
64686;SDS011;51113;53.646;-113.674;2023-06-26T09:39:06;15.73;;;9.30;;
64686;SDS011;51113;53.646;-113.674;2023-06-26T09:41:42;15.85;;;9.68;;
64686;SDS011;51113;53.646;-113.674;2023-06-26T09:44:12;15.98;;;9.25;;
64686;SDS011;51113;53.646;-113.674;2023-06-26T09:46:44;15.52;;;9.82;;
64686;SDS011;51113;53.646;-113.674;2023-06-26T09:49:14;14.60;;;9.10;;
64686;SDS011;51113;53.646;-113.674;2023-06-26T09:51:43;16.25;;;9.48;;
64686;SDS011;51113;53.646;-113.674;2023-06-26T09:54:12;14.60;;;9.00;;
64686;SDS011;51113;53.646;-113.674;2023-06-26T09:56:45;21.45;;;9.63;;
64686;SDS011;51113;53.646;-113.674;2023-06-26T09:59:13;16.40;;;9.15;;
64686;SDS011;51113;53.646;-113.674;2023-06-26T10:01:45;12.73;;;8.90;;
64686;SDS011;51113;53.646;-113.674;2023-06-26T10:04:15;13.90;;;9.77;;
64686;SDS011;51113;53.646;-113.674;2023-06-26T10:06:46;19.77;;;10.18;;
64686;SDS011;51113;53.646;-113.674;2023-06-26T10:09:20;17.90;;;9.32;;
64686;SDS011;51113;53.646;-113.674;2023-06-26T10:14:27;18.02;;;9.55;;
64686;SDS011;51113;53.646;-113.674;2023-06-26T10:16:59;20.02;;;10.13;;
64686;SDS011;51113;53.646;-113.674;2023-06-26T10:19:41;15.35;;;10.10;;
64686;SDS011;51113;53.646;-113.674;2023-06-26T10:22:14;16.45;;;10.32;;
64686;SDS011;51113;53.646;-113.674;2023-06-26T10:24:45;16.77;;;10.93;;
64686;SDS011;51113;53.646;-113.674;2023-06-26T10:27:17;15.30;;;9.93;;
64686;SDS011;51113;53.646;-113.674;2023-06-26T10:29:52;16.90;;;10.48;;
64686;SDS011;51113;53.646;-113.674;2023-06-26T10:32:25;19.13;;;9.95;;
64686;SDS011;51113;53.646;-113.674;2023-06-26T10:34:55;19.80;;;10.18;;
64686;SDS011;51113;53.646;-113.674;2023-06-26T10:37:59;13.82;;;10.27;;
64686;SDS011;51113;53.646;-113.674;2023-06-26T10:40:26;14.60;;;9.55;;
64686;SDS011;51113;53.646;-113.674;2023-06-26T10:43:05;16.70;;;10.50;;
64686;SDS011;51113;53.646;-113.674;2023-06-26T10:45:35;14.77;;;9.98;;
64686;SDS011;51113;53.646;-113.674;2023-06-26T10:48:05;19.52;;;9.88;;
64686;SDS011;51113;53.646;-113.674;2023-06-26T10:50:34;14.43;;;9.70;;
64686;SDS011;51113;53.646;-113.674;2023-06-26T10:55:59;15.93;;;9.82;;
64686;SDS011;51113;53.646;-113.674;2023-06-26T10:58:32;17.10;;;9.63;;
64686;SDS011;51113;53.646;-113.674;2023-06-26T11:03:46;14.90;;;9.63;;
64686;SDS011;51113;53.646;-113.674;2023-06-26T11:06:20;14.93;;;9.48;;
64686;SDS011;51113;53.646;-113.674;2023-06-26T11:08:50;13.00;;;9.45;;
64686;SDS011;51113;53.646;-113.674;2023-06-26T11:14:21;14.10;;;9.70;;
64686;SDS011;51113;53.646;-113.674;2023-06-26T11:16:51;16.65;;;10.00;;
64686;SDS011;51113;53.646;-113.674;2023-06-26T11:19:20;14.43;;;8.98;;
64686;SDS011;51113;53.646;-113.674;2023-06-26T11:21:49;14.82;;;9.70;;
64686;SDS011;51113;53.646;-113.674;2023-06-26T11:24:18;13.25;;;9.45;;
64686;SDS011;51113;53.646;-113.674;2023-06-26T11:26:47;17.40;;;9.63;;
64686;SDS011;51113;53.646;-113.674;2023-06-26T11:29:16;13.18;;;8.93;;
64686;SDS011;51113;53.646;-113.674;2023-06-26T11:31:45;17.02;;;9.82;;
64686;SDS011;51113;53.646;-113.674;2023-06-26T11:34:13;17.98;;;8.95;;
64686;SDS011;51113;53.646;-113.674;2023-06-26T11:36:43;14.95;;;9.75;;
64686;SDS011;51113;53.646;-113.674;2023-06-26T11:39:14;15.48;;;9.90;;
64686;SDS011;51113;53.646;-113.674;2023-06-26T11:41:44;15.30;;;9.52;;
64686;SDS011;51113;53.646;-113.674;2023-06-26T11:44:13;19.00;;;9.38;;
64686;SDS011;51113;53.646;-113.674;2023-06-26T11:46:47;22.75;;;10.10;;
64686;SDS011;51113;53.646;-113.674;2023-06-26T11:49:20;19.17;;;10.13;;
64686;SDS011;51113;53.646;-113.674;2023-06-26T11:51:51;16.02;;;9.15;;
64686;SDS011;51113;53.646;-113.674;2023-06-26T11:54:23;16.08;;;9.90;;
64686;SDS011;51113;53.646;-113.674;2023-06-26T11:56:54;14.52;;;9.88;;
64686;SDS011;51113;53.646;-113.674;2023-06-26T11:59:37;21.63;;;10.82;;
64686;SDS011;51113;53.646;-113.674;2023-06-26T12:02:08;17.13;;;10.20;;
64686;SDS011;51113;53.646;-113.674;2023-06-26T12:04:42;15.50;;;9.70;;
64686;SDS011;51113;53.646;-113.674;2023-06-26T12:07:12;14.80;;;9.52;;
64686;SDS011;51113;53.646;-113.674;2023-06-26T12:09:43;16.30;;;9.25;;
64686;SDS011;51113;53.646;-113.674;2023-06-26T12:12:14;14.48;;;9.75;;
64686;SDS011;51113;53.646;-113.674;2023-06-26T12:14:45;19.55;;;10.15;;
64686;SDS011;51113;53.646;-113.674;2023-06-26T12:17:14;17.83;;;10.55;;
64686;SDS011;51113;53.646;-113.674;2023-06-26T12:19:44;18.60;;;10.20;;
64686;SDS011;51113;53.646;-113.674;2023-06-26T12:22:17;20.83;;;10.40;;
64686;SDS011;51113;53.646;-113.674;2023-06-26T12:24:47;16.98;;;10.43;;
64686;SDS011;51113;53.646;-113.674;2023-06-26T12:27:17;15.68;;;10.15;;
64686;SDS011;51113;53.646;-113.674;2023-06-26T12:29:51;22.13;;;11.07;;
64686;SDS011;51113;53.646;-113.674;2023-06-26T12:32:24;17.98;;;10.68;;
64686;SDS011;51113;53.646;-113.674;2023-06-26T12:34:56;16.80;;;9.85;;
64686;SDS011;51113;53.646;-113.674;2023-06-26T12:37:26;15.50;;;10.07;;
64686;SDS011;51113;53.646;-113.674;2023-06-26T12:39:55;17.58;;;11.15;;
64686;SDS011;51113;53.646;-113.674;2023-06-26T12:42:26;20.65;;;11.80;;
64686;SDS011;51113;53.646;-113.674;2023-06-26T12:44:56;19.40;;;11.65;;
64686;SDS011;51113;53.646;-113.674;2023-06-26T12:47:26;21.80;;;12.05;;
64686;SDS011;51113;53.646;-113.674;2023-06-26T12:49:55;20.45;;;12.00;;
64686;SDS011;51113;53.646;-113.674;2023-06-26T12:52:25;21.55;;;12.38;;
64686;SDS011;51113;53.646;-113.674;2023-06-26T12:54:54;20.55;;;11.85;;
64686;SDS011;51113;53.646;-113.674;2023-06-26T12:57:24;20.85;;;11.13;;
64686;SDS011;51113;53.646;-113.674;2023-06-26T12:59:53;22.88;;;11.20;;
64686;SDS011;51113;53.646;-113.674;2023-06-26T13:02:22;19.38;;;11.55;;
64686;SDS011;51113;53.646;-113.674;2023-06-26T13:04:50;32.03;;;11.27;;
64686;SDS011;51113;53.646;-113.674;2023-06-26T13:07:19;18.73;;;11.18;;
64686;SDS011;51113;53.646;-113.674;2023-06-26T13:09:48;22.45;;;12.23;;
64686;SDS011;51113;53.646;-113.674;2023-06-26T13:12:16;18.17;;;11.98;;
64686;SDS011;51113;53.646;-113.674;2023-06-26T13:14:45;23.70;;;12.55;;
64686;SDS011;51113;53.646;-113.674;2023-06-26T13:17:14;20.15;;;12.48;;
64686;SDS011;51113;53.646;-113.674;2023-06-26T13:19:43;23.27;;;12.48;;
64686;SDS011;51113;53.646;-113.674;2023-06-26T13:22:12;16.42;;;11.20;;
64686;SDS011;51113;53.646;-113.674;2023-06-26T13:24:40;24.30;;;11.75;;
64686;SDS011;51113;53.646;-113.674;2023-06-26T13:27:09;18.17;;;11.10;;
64686;SDS011;51113;53.646;-113.674;2023-06-26T13:29:38;19.10;;;11.00;;
64686;SDS011;51113;53.646;-113.674;2023-06-26T13:32:06;18.02;;;10.68;;
64686;SDS011;51113;53.646;-113.674;2023-06-26T13:34:35;17.45;;;10.10;;
64686;SDS011;51113;53.646;-113.674;2023-06-26T13:37:04;16.73;;;10.52;;
64686;SDS011;51113;53.646;-113.674;2023-06-26T13:39:34;16.27;;;10.82;;
64686;SDS011;51113;53.646;-113.674;2023-06-26T13:42:03;17.30;;;11.05;;
64686;SDS011;51113;53.646;-113.674;2023-06-26T13:44:32;17.60;;;10.70;;
64686;SDS011;51113;53.646;-113.674;2023-06-26T13:47:21;17.30;;;10.05;;
64686;SDS011;51113;53.646;-113.674;2023-06-26T13:49:49;19.73;;;10.48;;
64686;SDS011;51113;53.646;-113.674;2023-06-26T13:52:18;13.88;;;9.85;;
64686;SDS011;51113;53.646;-113.674;2023-06-26T13:54:47;16.88;;;10.35;;
64686;SDS011;51113;53.646;-113.674;2023-06-26T13:57:15;15.07;;;9.05;;
64686;SDS011;51113;53.646;-113.674;2023-06-26T13:59:44;16.02;;;9.38;;
64686;SDS011;51113;53.646;-113.674;2023-06-26T14:02:14;16.83;;;9.13;;
64686;SDS011;51113;53.646;-113.674;2023-06-26T14:04:43;12.57;;;8.52;;
64686;SDS011;51113;53.646;-113.674;2023-06-26T14:07:11;19.10;;;8.35;;
64686;SDS011;51113;53.646;-113.674;2023-06-26T14:09:40;13.85;;;7.80;;
64686;SDS011;51113;53.646;-113.674;2023-06-26T14:12:09;14.13;;;7.55;;
64686;SDS011;51113;53.646;-113.674;2023-06-26T14:14:37;8.68;;;6.70;;
64686;SDS011;51113;53.646;-113.674;2023-06-26T14:17:06;16.70;;;7.63;;
64686;SDS011;51113;53.646;-113.674;2023-06-26T14:19:37;11.00;;;6.72;;
64686;SDS011;51113;53.646;-113.674;2023-06-26T14:22:06;14.23;;;7.45;;
64686;SDS011;51113;53.646;-113.674;2023-06-26T14:24:34;13.57;;;7.20;;
64686;SDS011;51113;53.646;-113.674;2023-06-26T14:27:03;14.90;;;6.85;;
64686;SDS011;51113;53.646;-113.674;2023-06-26T14:29:32;13.57;;;7.00;;
64686;SDS011;51113;53.646;-113.674;2023-06-26T14:32:00;11.93;;;7.05;;